Pagina principale
METAR-TAF:

METAR-TAF

Aeroporti :

Luxeuil-les-Bains, Francia

latitudine: 47-47N, longitudine: 006-21E, altezza: 278 m

Osservazione

Il bollettino è stato emesso 38 minuti fa, alle 18:00 UTC
Vento 5 kt da ovest/sud-ovest
Temperature 14°C
Umidità 94%
Pressione 1005 hPa
Visibilità 10 km o più
Poco nuvoloso ad un'altezza di 700 ft
Nuvoloso ad un'altezza di 8800 ft
Cielo coperto ad un'altezza di 24000 ft

METAR: LFSX 191800Z AUTO 25005KT 9999 FEW007 BKN088 OVC240 14/13 Q1005

Ora: 20:38 (18:38 UTC)


TAF: mancante

Osservazioni e previsioni meteorologiche di più di 4000 aeroporti (messaggi METAR e TAF).

Le stazioni disponibili sono rappresentate dai dischi gialli e rossi sulla carta.

Puntare il mouse per vedere il nome della stazione.

Clicca sopra per visualizzare le osservazioni e previsioni meteorologiche.

Per cambiare la mappa : fare clic sui pulsanti verdi con una croce nera per ingrandire, il pulsante verde con un trattino per diminuire, o sulla freccia verde per le mappe adiacenti.


METAR-TAF: